sensor_id;sensor_type;location;lat;lon;timestamp;P1;durP1;ratioP1;P2;durP2;ratioP2
71236;SDS011;58984;51.960;5.582;2022-10-16T00:01:34;6.13;;;2.70;;
71236;SDS011;58984;51.960;5.582;2022-10-16T00:04:00;5.03;;;3.17;;
71236;SDS011;58984;51.960;5.582;2022-10-16T00:06:27;4.78;;;3.08;;
71236;SDS011;58984;51.960;5.582;2022-10-16T00:08:53;4.57;;;3.17;;
71236;SDS011;58984;51.960;5.582;2022-10-16T00:11:26;5.22;;;3.10;;
71236;SDS011;58984;51.960;5.582;2022-10-16T00:13:56;3.00;;;2.47;;
71236;SDS011;58984;51.960;5.582;2022-10-16T00:16:23;3.80;;;2.78;;
71236;SDS011;58984;51.960;5.582;2022-10-16T00:18:49;3.85;;;2.70;;
71236;SDS011;58984;51.960;5.582;2022-10-16T00:21:17;3.28;;;2.95;;
71236;SDS011;58984;51.960;5.582;2022-10-16T00:23:44;6.55;;;2.80;;
71236;SDS011;58984;51.960;5.582;2022-10-16T00:26:11;6.63;;;3.08;;
71236;SDS011;58984;51.960;5.582;2022-10-16T00:28:40;7.28;;;3.10;;
71236;SDS011;58984;51.960;5.582;2022-10-16T00:31:10;7.03;;;2.88;;
71236;SDS011;58984;51.960;5.582;2022-10-16T00:33:37;4.53;;;3.08;;
71236;SDS011;58984;51.960;5.582;2022-10-16T00:36:04;5.28;;;3.10;;
71236;SDS011;58984;51.960;5.582;2022-10-16T00:38:32;7.30;;;3.45;;
71236;SDS011;58984;51.960;5.582;2022-10-16T00:40:57;3.90;;;3.15;;
71236;SDS011;58984;51.960;5.582;2022-10-16T00:43:37;4.90;;;3.05;;
71236;SDS011;58984;51.960;5.582;2022-10-16T00:46:39;5.65;;;2.92;;
71236;SDS011;58984;51.960;5.582;2022-10-16T00:49:14;5.30;;;3.22;;
71236;SDS011;58984;51.960;5.582;2022-10-16T00:54:13;5.35;;;3.25;;
71236;SDS011;58984;51.960;5.582;2022-10-16T00:56:42;5.93;;;3.03;;
71236;SDS011;58984;51.960;5.582;2022-10-16T00:59:16;6.80;;;3.20;;
71236;SDS011;58984;51.960;5.582;2022-10-16T01:01:45;3.38;;;2.92;;
71236;SDS011;58984;51.960;5.582;2022-10-16T01:04:11;3.70;;;2.95;;
71236;SDS011;58984;51.960;5.582;2022-10-16T01:09:11;4.82;;;3.20;;
71236;SDS011;58984;51.960;5.582;2022-10-16T01:12:15;5.43;;;3.08;;
71236;SDS011;58984;51.960;5.582;2022-10-16T01:15:06;4.72;;;3.00;;
71236;SDS011;58984;51.960;5.582;2022-10-16T01:20:21;6.65;;;3.05;;
71236;SDS011;58984;51.960;5.582;2022-10-16T01:28:29;7.68;;;3.05;;
71236;SDS011;58984;51.960;5.582;2022-10-16T01:31:18;4.63;;;3.03;;
71236;SDS011;58984;51.960;5.582;2022-10-16T01:33:47;4.95;;;2.90;;
71236;SDS011;58984;51.960;5.582;2022-10-16T01:36:29;5.45;;;3.25;;
71236;SDS011;58984;51.960;5.582;2022-10-16T01:39:01;5.47;;;2.88;;
71236;SDS011;58984;51.960;5.582;2022-10-16T01:41:31;4.97;;;2.83;;
71236;SDS011;58984;51.960;5.582;2022-10-16T01:44:03;4.30;;;2.92;;
71236;SDS011;58984;51.960;5.582;2022-10-16T01:46:35;6.45;;;3.30;;
71236;SDS011;58984;51.960;5.582;2022-10-16T01:49:03;5.57;;;2.90;;
71236;SDS011;58984;51.960;5.582;2022-10-16T01:51:31;3.15;;;2.75;;
71236;SDS011;58984;51.960;5.582;2022-10-16T01:53:58;4.88;;;3.13;;
71236;SDS011;58984;51.960;5.582;2022-10-16T01:56:26;4.03;;;2.53;;
71236;SDS011;58984;51.960;5.582;2022-10-16T01:59:00;4.47;;;2.95;;
71236;SDS011;58984;51.960;5.582;2022-10-16T02:01:33;4.43;;;3.05;;
71236;SDS011;58984;51.960;5.582;2022-10-16T02:04:03;4.32;;;2.90;;
71236;SDS011;58984;51.960;5.582;2022-10-16T02:06:34;5.20;;;3.03;;
71236;SDS011;58984;51.960;5.582;2022-10-16T02:09:00;3.15;;;2.60;;
71236;SDS011;58984;51.960;5.582;2022-10-16T02:11:26;4.80;;;2.88;;
71236;SDS011;58984;51.960;5.582;2022-10-16T02:13:53;4.00;;;2.55;;
71236;SDS011;58984;51.960;5.582;2022-10-16T02:16:36;5.30;;;3.17;;
71236;SDS011;58984;51.960;5.582;2022-10-16T02:19:05;7.22;;;3.22;;
71236;SDS011;58984;51.960;5.582;2022-10-16T02:21:33;3.70;;;2.90;;
71236;SDS011;58984;51.960;5.582;2022-10-16T02:27:12;4.32;;;2.67;;
71236;SDS011;58984;51.960;5.582;2022-10-16T02:29:47;3.63;;;3.20;;
71236;SDS011;58984;51.960;5.582;2022-10-16T02:32:19;4.05;;;2.78;;
71236;SDS011;58984;51.960;5.582;2022-10-16T02:34:47;4.13;;;2.80;;
71236;SDS011;58984;51.960;5.582;2022-10-16T02:37:14;4.32;;;2.67;;
71236;SDS011;58984;51.960;5.582;2022-10-16T02:39:40;3.75;;;3.30;;
71236;SDS011;58984;51.960;5.582;2022-10-16T02:42:12;4.00;;;2.63;;
71236;SDS011;58984;51.960;5.582;2022-10-16T02:44:39;4.72;;;3.17;;
71236;SDS011;58984;51.960;5.582;2022-10-16T02:47:05;3.25;;;2.78;;
71236;SDS011;58984;51.960;5.582;2022-10-16T02:49:30;4.18;;;2.92;;
71236;SDS011;58984;51.960;5.582;2022-10-16T02:51:56;4.57;;;2.70;;
71236;SDS011;58984;51.960;5.582;2022-10-16T02:54:21;3.38;;;2.40;;
71236;SDS011;58984;51.960;5.582;2022-10-16T02:56:47;4.03;;;2.40;;
71236;SDS011;58984;51.960;5.582;2022-10-16T02:59:12;4.28;;;2.78;;
71236;SDS011;58984;51.960;5.582;2022-10-16T03:01:38;7.07;;;2.90;;
71236;SDS011;58984;51.960;5.582;2022-10-16T03:04:03;3.97;;;2.65;;
71236;SDS011;58984;51.960;5.582;2022-10-16T03:06:29;7.63;;;3.13;;
71236;SDS011;58984;51.960;5.582;2022-10-16T03:08:55;3.25;;;2.80;;
71236;SDS011;58984;51.960;5.582;2022-10-16T03:11:20;4.75;;;2.80;;
71236;SDS011;58984;51.960;5.582;2022-10-16T03:13:46;3.40;;;2.50;;
71236;SDS011;58984;51.960;5.582;2022-10-16T03:16:11;5.07;;;2.70;;
71236;SDS011;58984;51.960;5.582;2022-10-16T03:18:37;3.67;;;2.47;;
71236;SDS011;58984;51.960;5.582;2022-10-16T03:21:03;3.22;;;2.10;;
71236;SDS011;58984;51.960;5.582;2022-10-16T03:23:28;3.58;;;2.75;;
71236;SDS011;58984;51.960;5.582;2022-10-16T03:25:54;3.75;;;2.50;;
71236;SDS011;58984;51.960;5.582;2022-10-16T03:28:19;4.13;;;2.75;;
71236;SDS011;58984;51.960;5.582;2022-10-16T03:30:45;3.05;;;2.10;;
71236;SDS011;58984;51.960;5.582;2022-10-16T03:33:10;2.65;;;2.45;;
71236;SDS011;58984;51.960;5.582;2022-10-16T03:35:36;3.20;;;2.40;;
71236;SDS011;58984;51.960;5.582;2022-10-16T03:38:02;4.82;;;2.25;;
71236;SDS011;58984;51.960;5.582;2022-10-16T03:40:27;3.60;;;2.30;;
71236;SDS011;58984;51.960;5.582;2022-10-16T03:42:53;4.78;;;2.58;;
71236;SDS011;58984;51.960;5.582;2022-10-16T03:45:22;4.10;;;2.30;;
71236;SDS011;58984;51.960;5.582;2022-10-16T03:47:48;5.13;;;2.72;;
71236;SDS011;58984;51.960;5.582;2022-10-16T03:50:13;3.28;;;2.47;;
71236;SDS011;58984;51.960;5.582;2022-10-16T03:52:39;3.60;;;2.20;;
71236;SDS011;58984;51.960;5.582;2022-10-16T03:55:05;2.40;;;2.20;;
71236;SDS011;58984;51.960;5.582;2022-10-16T03:57:31;4.47;;;2.17;;
71236;SDS011;58984;51.960;5.582;2022-10-16T03:59:56;2.88;;;2.20;;
71236;SDS011;58984;51.960;5.582;2022-10-16T04:02:22;4.50;;;2.50;;
71236;SDS011;58984;51.960;5.582;2022-10-16T04:04:48;5.53;;;2.40;;
71236;SDS011;58984;51.960;5.582;2022-10-16T04:07:13;2.17;;;1.90;;
71236;SDS011;58984;51.960;5.582;2022-10-16T04:09:39;3.88;;;2.28;;
71236;SDS011;58984;51.960;5.582;2022-10-16T04:12:04;4.40;;;2.22;;
71236;SDS011;58984;51.960;5.582;2022-10-16T04:14:30;3.75;;;2.15;;
71236;SDS011;58984;51.960;5.582;2022-10-16T04:16:55;4.35;;;2.10;;
71236;SDS011;58984;51.960;5.582;2022-10-16T04:19:21;2.50;;;2.30;;
71236;SDS011;58984;51.960;5.582;2022-10-16T04:21:46;3.50;;;2.40;;
71236;SDS011;58984;51.960;5.582;2022-10-16T04:24:12;3.08;;;2.17;;
71236;SDS011;58984;51.960;5.582;2022-10-16T04:26:38;3.88;;;2.10;;
71236;SDS011;58984;51.960;5.582;2022-10-16T04:29:03;3.05;;;2.10;;
71236;SDS011;58984;51.960;5.582;2022-10-16T04:31:29;3.92;;;2.35;;
71236;SDS011;58984;51.960;5.582;2022-10-16T04:33:54;3.47;;;2.17;;
71236;SDS011;58984;51.960;5.582;2022-10-16T04:36:20;3.92;;;2.13;;
71236;SDS011;58984;51.960;5.582;2022-10-16T04:38:46;3.45;;;2.20;;
71236;SDS011;58984;51.960;5.582;2022-10-16T04:41:12;2.78;;;2.15;;
71236;SDS011;58984;51.960;5.582;2022-10-16T04:43:37;2.95;;;2.25;;
71236;SDS011;58984;51.960;5.582;2022-10-16T04:46:03;2.33;;;1.98;;
71236;SDS011;58984;51.960;5.582;2022-10-16T04:48:29;3.38;;;2.10;;
71236;SDS011;58984;51.960;5.582;2022-10-16T04:50:55;2.92;;;1.90;;
71236;SDS011;58984;51.960;5.582;2022-10-16T04:53:21;2.22;;;1.90;;
71236;SDS011;58984;51.960;5.582;2022-10-16T04:55:46;2.72;;;2.05;;
71236;SDS011;58984;51.960;5.582;2022-10-16T04:58:12;3.53;;;2.53;;
71236;SDS011;58984;51.960;5.582;2022-10-16T05:00:38;5.60;;;2.17;;
71236;SDS011;58984;51.960;5.582;2022-10-16T05:03:04;2.85;;;2.50;;
71236;SDS011;58984;51.960;5.582;2022-10-16T05:05:32;2.60;;;2.08;;
71236;SDS011;58984;51.960;5.582;2022-10-16T05:07:58;4.72;;;2.17;;
71236;SDS011;58984;51.960;5.582;2022-10-16T05:10:23;3.17;;;2.33;;
71236;SDS011;58984;51.960;5.582;2022-10-16T05:12:49;3.40;;;2.10;;
71236;SDS011;58984;51.960;5.582;2022-10-16T05:15:16;3.08;;;1.90;;
71236;SDS011;58984;51.960;5.582;2022-10-16T05:17:42;3.65;;;2.30;;
71236;SDS011;58984;51.960;5.582;2022-10-16T05:20:08;3.25;;;2.00;;
71236;SDS011;58984;51.960;5.582;2022-10-16T05:22:33;2.72;;;1.67;;
71236;SDS011;58984;51.960;5.582;2022-10-16T05:24:59;2.40;;;2.20;;
71236;SDS011;58984;51.960;5.582;2022-10-16T05:27:24;2.53;;;2.20;;
71236;SDS011;58984;51.960;5.582;2022-10-16T05:29:50;3.13;;;1.98;;
71236;SDS011;58984;51.960;5.582;2022-10-16T05:32:16;2.78;;;1.95;;
71236;SDS011;58984;51.960;5.582;2022-10-16T05:34:42;2.55;;;1.90;;
71236;SDS011;58984;51.960;5.582;2022-10-16T05:37:08;2.53;;;1.80;;
71236;SDS011;58984;51.960;5.582;2022-10-16T05:39:34;2.40;;;1.90;;
71236;SDS011;58984;51.960;5.582;2022-10-16T05:41:59;4.53;;;2.00;;
71236;SDS011;58984;51.960;5.582;2022-10-16T05:44:25;2.83;;;2.00;;
71236;SDS011;58984;51.960;5.582;2022-10-16T05:46:50;2.28;;;1.80;;
71236;SDS011;58984;51.960;5.582;2022-10-16T05:49:16;4.10;;;2.20;;
71236;SDS011;58984;51.960;5.582;2022-10-16T05:51:42;3.90;;;2.38;;
71236;SDS011;58984;51.960;5.582;2022-10-16T05:54:07;3.05;;;2.20;;
71236;SDS011;58984;51.960;5.582;2022-10-16T05:56:33;2.10;;;1.80;;
71236;SDS011;58984;51.960;5.582;2022-10-16T05:58:59;3.75;;;2.00;;
71236;SDS011;58984;51.960;5.582;2022-10-16T06:01:24;3.03;;;1.83;;
71236;SDS011;58984;51.960;5.582;2022-10-16T06:03:51;5.63;;;2.30;;
71236;SDS011;58984;51.960;5.582;2022-10-16T06:06:18;3.53;;;2.17;;
71236;SDS011;58984;51.960;5.582;2022-10-16T06:08:51;2.72;;;2.10;;
71236;SDS011;58984;51.960;5.582;2022-10-16T06:11:19;4.35;;;2.20;;
71236;SDS011;58984;51.960;5.582;2022-10-16T06:13:50;2.65;;;2.22;;
71236;SDS011;58984;51.960;5.582;2022-10-16T06:16:16;3.90;;;2.30;;
71236;SDS011;58984;51.960;5.582;2022-10-16T06:18:42;3.63;;;2.10;;
71236;SDS011;58984;51.960;5.582;2022-10-16T06:21:09;5.63;;;2.22;;
71236;SDS011;58984;51.960;5.582;2022-10-16T06:23:36;4.30;;;2.42;;
71236;SDS011;58984;51.960;5.582;2022-10-16T06:26:05;2.33;;;2.08;;
71236;SDS011;58984;51.960;5.582;2022-10-16T06:28:35;3.22;;;2.13;;
71236;SDS011;58984;51.960;5.582;2022-10-16T06:31:02;3.33;;;2.22;;
71236;SDS011;58984;51.960;5.582;2022-10-16T06:33:29;5.80;;;2.33;;
71236;SDS011;58984;51.960;5.582;2022-10-16T06:36:05;3.20;;;2.20;;
71236;SDS011;58984;51.960;5.582;2022-10-16T06:38:33;3.45;;;2.05;;
71236;SDS011;58984;51.960;5.582;2022-10-16T06:40:59;3.78;;;2.30;;
71236;SDS011;58984;51.960;5.582;2022-10-16T06:43:25;2.72;;;2.00;;
71236;SDS011;58984;51.960;5.582;2022-10-16T06:45:53;3.35;;;2.22;;
71236;SDS011;58984;51.960;5.582;2022-10-16T06:48:20;5.03;;;2.13;;
71236;SDS011;58984;51.960;5.582;2022-10-16T06:51:00;4.03;;;1.85;;
71236;SDS011;58984;51.960;5.582;2022-10-16T06:53:37;3.10;;;2.10;;
71236;SDS011;58984;51.960;5.582;2022-10-16T06:58:33;4.88;;;2.90;;
71236;SDS011;58984;51.960;5.582;2022-10-16T07:00:59;2.30;;;2.10;;
71236;SDS011;58984;51.960;5.582;2022-10-16T07:03:24;3.05;;;2.17;;
71236;SDS011;58984;51.960;5.582;2022-10-16T07:05:50;3.55;;;2.05;;
71236;SDS011;58984;51.960;5.582;2022-10-16T07:08:16;4.43;;;2.20;;
71236;SDS011;58984;51.960;5.582;2022-10-16T07:10:41;3.88;;;2.25;;
71236;SDS011;58984;51.960;5.582;2022-10-16T07:13:07;3.95;;;2.47;;
71236;SDS011;58984;51.960;5.582;2022-10-16T07:15:32;7.03;;;2.38;;
71236;SDS011;58984;51.960;5.582;2022-10-16T07:17:58;5.25;;;2.95;;
71236;SDS011;58984;51.960;5.582;2022-10-16T07:20:27;3.67;;;2.67;;
71236;SDS011;58984;51.960;5.582;2022-10-16T07:22:52;4.30;;;2.70;;
71236;SDS011;58984;51.960;5.582;2022-10-16T07:25:18;5.35;;;2.60;;
71236;SDS011;58984;51.960;5.582;2022-10-16T07:27:43;4.50;;;2.67;;
71236;SDS011;58984;51.960;5.582;2022-10-16T07:30:09;3.17;;;2.65;;
71236;SDS011;58984;51.960;5.582;2022-10-16T07:32:35;4.38;;;2.47;;
71236;SDS011;58984;51.960;5.582;2022-10-16T07:35:00;5.47;;;3.00;;
71236;SDS011;58984;51.960;5.582;2022-10-16T07:37:26;3.17;;;2.55;;
71236;SDS011;58984;51.960;5.582;2022-10-16T07:39:52;4.50;;;2.63;;
71236;SDS011;58984;51.960;5.582;2022-10-16T07:42:17;3.00;;;2.08;;
71236;SDS011;58984;51.960;5.582;2022-10-16T07:44:45;2.47;;;2.28;;
71236;SDS011;58984;51.960;5.582;2022-10-16T07:47:10;7.88;;;2.45;;
71236;SDS011;58984;51.960;5.582;2022-10-16T07:49:36;3.75;;;2.35;;
71236;SDS011;58984;51.960;5.582;2022-10-16T07:52:02;3.78;;;2.35;;
71236;SDS011;58984;51.960;5.582;2022-10-16T07:54:27;3.55;;;2.10;;
71236;SDS011;58984;51.960;5.582;2022-10-16T07:56:53;4.25;;;2.40;;
71236;SDS011;58984;51.960;5.582;2022-10-16T07:59:19;3.45;;;2.05;;
71236;SDS011;58984;51.960;5.582;2022-10-16T08:01:44;4.20;;;2.20;;
71236;SDS011;58984;51.960;5.582;2022-10-16T08:04:10;5.68;;;2.42;;
71236;SDS011;58984;51.960;5.582;2022-10-16T08:06:36;3.67;;;2.63;;
71236;SDS011;58984;51.960;5.582;2022-10-16T08:09:05;6.28;;;2.50;;
71236;SDS011;58984;51.960;5.582;2022-10-16T08:11:31;4.78;;;2.45;;
71236;SDS011;58984;51.960;5.582;2022-10-16T08:13:57;2.55;;;2.00;;
71236;SDS011;58984;51.960;5.582;2022-10-16T08:16:22;4.10;;;2.13;;
71236;SDS011;58984;51.960;5.582;2022-10-16T08:18:48;2.42;;;2.13;;
71236;SDS011;58984;51.960;5.582;2022-10-16T08:21:16;4.13;;;2.30;;
71236;SDS011;58984;51.960;5.582;2022-10-16T08:23:44;3.13;;;2.55;;
71236;SDS011;58984;51.960;5.582;2022-10-16T08:26:10;3.53;;;2.25;;
71236;SDS011;58984;51.960;5.582;2022-10-16T08:28:36;5.15;;;2.42;;
71236;SDS011;58984;51.960;5.582;2022-10-16T08:31:08;2.95;;;2.28;;
71236;SDS011;58984;51.960;5.582;2022-10-16T08:33:40;4.18;;;2.40;;
71236;SDS011;58984;51.960;5.582;2022-10-16T08:36:09;4.28;;;2.60;;
71236;SDS011;58984;51.960;5.582;2022-10-16T08:38:35;4.55;;;2.65;;
71236;SDS011;58984;51.960;5.582;2022-10-16T08:41:04;4.55;;;2.58;;
71236;SDS011;58984;51.960;5.582;2022-10-16T08:48:54;4.22;;;2.63;;
71236;SDS011;58984;51.960;5.582;2022-10-16T08:51:23;4.43;;;2.42;;
71236;SDS011;58984;51.960;5.582;2022-10-16T08:53:58;4.63;;;2.65;;
71236;SDS011;58984;51.960;5.582;2022-10-16T08:56:26;5.75;;;2.85;;
71236;SDS011;58984;51.960;5.582;2022-10-16T08:58:52;5.18;;;2.40;;
71236;SDS011;58984;51.960;5.582;2022-10-16T09:01:19;7.95;;;2.60;;
71236;SDS011;58984;51.960;5.582;2022-10-16T09:06:37;4.63;;;2.33;;
71236;SDS011;58984;51.960;5.582;2022-10-16T09:09:43;3.65;;;2.58;;
71236;SDS011;58984;51.960;5.582;2022-10-16T09:12:31;4.38;;;2.60;;
71236;SDS011;58984;51.960;5.582;2022-10-16T09:18:00;4.47;;;2.55;;
71236;SDS011;58984;51.960;5.582;2022-10-16T09:21:01;5.28;;;2.55;;
71236;SDS011;58984;51.960;5.582;2022-10-16T09:23:48;6.05;;;2.65;;
71236;SDS011;58984;51.960;5.582;2022-10-16T09:26:15;7.40;;;2.70;;
71236;SDS011;58984;51.960;5.582;2022-10-16T09:28:42;5.85;;;2.63;;
71236;SDS011;58984;51.960;5.582;2022-10-16T09:31:15;4.90;;;3.05;;
71236;SDS011;58984;51.960;5.582;2022-10-16T09:33:48;5.55;;;2.60;;
71236;SDS011;58984;51.960;5.582;2022-10-16T09:36:25;4.53;;;2.33;;
71236;SDS011;58984;51.960;5.582;2022-10-16T09:39:01;4.35;;;2.80;;
71236;SDS011;58984;51.960;5.582;2022-10-16T09:41:28;5.45;;;2.38;;
71236;SDS011;58984;51.960;5.582;2022-10-16T09:43:57;6.90;;;2.70;;
71236;SDS011;58984;51.960;5.582;2022-10-16T09:46:31;6.40;;;3.00;;
71236;SDS011;58984;51.960;5.582;2022-10-16T09:49:05;5.90;;;2.45;;
71236;SDS011;58984;51.960;5.582;2022-10-16T09:51:50;5.93;;;2.10;;
71236;SDS011;58984;51.960;5.582;2022-10-16T09:54:27;6.20;;;3.00;;
71236;SDS011;58984;51.960;5.582;2022-10-16T09:57:03;6.38;;;3.13;;
71236;SDS011;58984;51.960;5.582;2022-10-16T09:59:30;5.10;;;2.30;;
71236;SDS011;58984;51.960;5.582;2022-10-16T10:01:56;5.97;;;2.80;;
71236;SDS011;58984;51.960;5.582;2022-10-16T10:04:36;4.88;;;2.30;;
71236;SDS011;58984;51.960;5.582;2022-10-16T10:07:05;7.20;;;2.90;;
71236;SDS011;58984;51.960;5.582;2022-10-16T10:09:42;4.53;;;2.30;;
71236;SDS011;58984;51.960;5.582;2022-10-16T10:12:26;3.90;;;2.38;;
71236;SDS011;58984;51.960;5.582;2022-10-16T10:14:55;6.10;;;2.60;;
71236;SDS011;58984;51.960;5.582;2022-10-16T10:17:23;5.85;;;2.70;;
71236;SDS011;58984;51.960;5.582;2022-10-16T10:35:32;7.65;;;2.75;;
71236;SDS011;58984;51.960;5.582;2022-10-16T10:46:33;5.50;;;2.40;;
71236;SDS011;58984;51.960;5.582;2022-10-16T10:55:06;4.50;;;2.65;;
71236;SDS011;58984;51.960;5.582;2022-10-16T10:57:54;5.50;;;2.40;;
71236;SDS011;58984;51.960;5.582;2022-10-16T11:00:44;7.20;;;2.45;;
71236;SDS011;58984;51.960;5.582;2022-10-16T11:06:18;7.55;;;2.88;;
71236;SDS011;58984;51.960;5.582;2022-10-16T11:11:53;10.70;;;2.78;;
71236;SDS011;58984;51.960;5.582;2022-10-16T11:15:40;5.28;;;2.17;;
71236;SDS011;58984;51.960;5.582;2022-10-16T11:17:42;6.40;;;2.80;;
71236;SDS011;58984;51.960;5.582;2022-10-16T11:22:47;4.37;;;2.43;;
71236;SDS011;58984;51.960;5.582;2022-10-16T11:28:01;7.45;;;2.42;;
71236;SDS011;58984;51.960;5.582;2022-10-16T11:30:31;12.50;;;2.80;;
71236;SDS011;58984;51.960;5.582;2022-10-16T11:33:16;4.03;;;1.83;;
71236;SDS011;58984;51.960;5.582;2022-10-16T11:36:03;5.38;;;2.50;;
71236;SDS011;58984;51.960;5.582;2022-10-16T11:38:48;9.00;;;2.80;;
71236;SDS011;58984;51.960;5.582;2022-10-16T11:41:33;5.40;;;2.13;;
71236;SDS011;58984;51.960;5.582;2022-10-16T11:49:42;4.45;;;2.05;;
71236;SDS011;58984;51.960;5.582;2022-10-16T11:52:13;4.70;;;2.40;;
71236;SDS011;58984;51.960;5.582;2022-10-16T11:57:36;6.22;;;2.08;;
71236;SDS011;58984;51.960;5.582;2022-10-16T12:00:08;7.43;;;2.70;;
71236;SDS011;58984;51.960;5.582;2022-10-16T12:08:22;6.65;;;2.60;;
71236;SDS011;58984;51.960;5.582;2022-10-16T12:10:48;6.18;;;2.17;;
71236;SDS011;58984;51.960;5.582;2022-10-16T12:13:33;4.65;;;2.10;;
71236;SDS011;58984;51.960;5.582;2022-10-16T12:18:39;5.75;;;2.33;;
71236;SDS011;58984;51.960;5.582;2022-10-16T12:21:05;5.57;;;2.22;;
71236;SDS011;58984;51.960;5.582;2022-10-16T12:23:33;5.13;;;2.15;;
71236;SDS011;58984;51.960;5.582;2022-10-16T12:26:02;5.28;;;2.33;;
71236;SDS011;58984;51.960;5.582;2022-10-16T12:28:30;3.90;;;2.13;;
71236;SDS011;58984;51.960;5.582;2022-10-16T12:31:04;7.38;;;2.65;;
71236;SDS011;58984;51.960;5.582;2022-10-16T12:33:34;6.85;;;2.33;;
71236;SDS011;58984;51.960;5.582;2022-10-16T12:38:51;5.72;;;2.28;;
71236;SDS011;58984;51.960;5.582;2022-10-16T12:41:31;5.40;;;2.00;;
71236;SDS011;58984;51.960;5.582;2022-10-16T12:43:59;6.55;;;2.50;;
71236;SDS011;58984;51.960;5.582;2022-10-16T12:49:04;7.68;;;2.40;;
71236;SDS011;58984;51.960;5.582;2022-10-16T12:51:36;6.38;;;2.08;;
71236;SDS011;58984;51.960;5.582;2022-10-16T12:54:04;4.00;;;1.92;;
71236;SDS011;58984;51.960;5.582;2022-10-16T13:16:21;5.90;;;2.35;;
71236;SDS011;58984;51.960;5.582;2022-10-16T13:21:43;6.82;;;2.55;;
71236;SDS011;58984;51.960;5.582;2022-10-16T13:29:31;5.88;;;2.17;;
71236;SDS011;58984;51.960;5.582;2022-10-16T13:31:59;7.60;;;2.38;;
71236;SDS011;58984;51.960;5.582;2022-10-16T13:34:26;6.07;;;2.00;;
71236;SDS011;58984;51.960;5.582;2022-10-16T13:36:53;5.53;;;2.33;;
71236;SDS011;58984;51.960;5.582;2022-10-16T13:39:29;9.35;;;2.90;;
71236;SDS011;58984;51.960;5.582;2022-10-16T13:42:03;6.03;;;2.22;;
71236;SDS011;58984;51.960;5.582;2022-10-16T13:47:16;5.85;;;2.35;;
71236;SDS011;58984;51.960;5.582;2022-10-16T13:49:45;4.03;;;2.10;;
71236;SDS011;58984;51.960;5.582;2022-10-16T13:52:16;7.35;;;2.58;;
71236;SDS011;58984;51.960;5.582;2022-10-16T13:54:46;5.95;;;2.58;;
71236;SDS011;58984;51.960;5.582;2022-10-16T13:57:15;6.32;;;2.42;;
71236;SDS011;58984;51.960;5.582;2022-10-16T13:59:41;7.55;;;2.60;;
71236;SDS011;58984;51.960;5.582;2022-10-16T14:02:15;7.05;;;2.70;;
71236;SDS011;58984;51.960;5.582;2022-10-16T14:04:44;8.30;;;2.80;;
71236;SDS011;58984;51.960;5.582;2022-10-16T14:07:14;8.45;;;2.60;;
71236;SDS011;58984;51.960;5.582;2022-10-16T14:09:48;3.97;;;1.92;;
71236;SDS011;58984;51.960;5.582;2022-10-16T14:12:15;6.07;;;2.70;;
71236;SDS011;58984;51.960;5.582;2022-10-16T14:14:42;5.85;;;2.42;;
71236;SDS011;58984;51.960;5.582;2022-10-16T14:17:16;5.22;;;2.17;;
71236;SDS011;58984;51.960;5.582;2022-10-16T14:19:47;7.65;;;2.50;;
71236;SDS011;58984;51.960;5.582;2022-10-16T14:22:48;6.50;;;2.67;;
71236;SDS011;58984;51.960;5.582;2022-10-16T14:28:13;4.00;;;2.47;;
71236;SDS011;58984;51.960;5.582;2022-10-16T14:30:55;4.65;;;2.47;;
71236;SDS011;58984;51.960;5.582;2022-10-16T14:36:02;7.78;;;2.70;;
71236;SDS011;58984;51.960;5.582;2022-10-16T14:38:28;5.90;;;2.40;;
71236;SDS011;58984;51.960;5.582;2022-10-16T14:40:54;3.70;;;2.08;;
71236;SDS011;58984;51.960;5.582;2022-10-16T14:46:12;9.82;;;2.88;;
71236;SDS011;58984;51.960;5.582;2022-10-16T14:48:43;5.47;;;2.60;;
71236;SDS011;58984;51.960;5.582;2022-10-16T14:51:14;6.45;;;2.40;;
71236;SDS011;58984;51.960;5.582;2022-10-16T14:53:40;7.97;;;2.65;;
71236;SDS011;58984;51.960;5.582;2022-10-16T14:56:07;6.82;;;2.45;;
71236;SDS011;58984;51.960;5.582;2022-10-16T14:58:34;4.35;;;2.38;;
71236;SDS011;58984;51.960;5.582;2022-10-16T15:01:00;9.02;;;3.10;;
71236;SDS011;58984;51.960;5.582;2022-10-16T15:03:26;6.38;;;2.80;;
71236;SDS011;58984;51.960;5.582;2022-10-16T15:05:51;7.88;;;2.70;;
71236;SDS011;58984;51.960;5.582;2022-10-16T15:08:17;4.72;;;2.50;;
71236;SDS011;58984;51.960;5.582;2022-10-16T15:10:43;6.22;;;2.65;;
71236;SDS011;58984;51.960;5.582;2022-10-16T15:13:12;7.25;;;2.55;;
71236;SDS011;58984;51.960;5.582;2022-10-16T15:15:42;6.35;;;2.70;;
71236;SDS011;58984;51.960;5.582;2022-10-16T15:18:09;7.03;;;2.60;;
71236;SDS011;58984;51.960;5.582;2022-10-16T15:20:36;7.15;;;2.72;;
71236;SDS011;58984;51.960;5.582;2022-10-16T15:23:04;8.75;;;3.08;;
71236;SDS011;58984;51.960;5.582;2022-10-16T15:25:39;7.25;;;2.55;;
71236;SDS011;58984;51.960;5.582;2022-10-16T15:28:08;7.97;;;3.22;;
71236;SDS011;58984;51.960;5.582;2022-10-16T15:30:35;7.18;;;2.60;;
71236;SDS011;58984;51.960;5.582;2022-10-16T15:33:01;11.25;;;3.20;;
71236;SDS011;58984;51.960;5.582;2022-10-16T15:35:27;8.65;;;2.78;;
71236;SDS011;58984;51.960;5.582;2022-10-16T15:37:53;6.82;;;2.58;;
71236;SDS011;58984;51.960;5.582;2022-10-16T15:40:19;6.07;;;3.03;;
71236;SDS011;58984;51.960;5.582;2022-10-16T15:42:45;5.90;;;2.58;;
71236;SDS011;58984;51.960;5.582;2022-10-16T15:45:12;7.55;;;3.03;;
71236;SDS011;58984;51.960;5.582;2022-10-16T15:47:38;6.03;;;2.80;;
71236;SDS011;58984;51.960;5.582;2022-10-16T15:50:06;6.47;;;2.85;;
71236;SDS011;58984;51.960;5.582;2022-10-16T15:52:31;5.82;;;3.00;;
71236;SDS011;58984;51.960;5.582;2022-10-16T15:54:57;7.28;;;2.80;;
71236;SDS011;58984;51.960;5.582;2022-10-16T15:57:23;5.78;;;3.20;;
71236;SDS011;58984;51.960;5.582;2022-10-16T15:59:49;6.97;;;3.00;;
71236;SDS011;58984;51.960;5.582;2022-10-16T16:02:15;8.98;;;3.53;;
71236;SDS011;58984;51.960;5.582;2022-10-16T16:04:40;8.95;;;3.20;;
71236;SDS011;58984;51.960;5.582;2022-10-16T16:07:06;8.45;;;3.22;;
71236;SDS011;58984;51.960;5.582;2022-10-16T16:09:34;5.60;;;2.67;;
71236;SDS011;58984;51.960;5.582;2022-10-16T16:12:00;9.73;;;3.03;;
71236;SDS011;58984;51.960;5.582;2022-10-16T16:14:26;7.97;;;3.22;;
71236;SDS011;58984;51.960;5.582;2022-10-16T16:16:53;11.90;;;4.05;;
71236;SDS011;58984;51.960;5.582;2022-10-16T16:19:22;7.47;;;3.58;;
71236;SDS011;58984;51.960;5.582;2022-10-16T16:21:48;7.82;;;3.53;;
71236;SDS011;58984;51.960;5.582;2022-10-16T16:24:14;8.77;;;3.45;;
71236;SDS011;58984;51.960;5.582;2022-10-16T16:26:40;7.18;;;3.45;;
71236;SDS011;58984;51.960;5.582;2022-10-16T16:29:08;11.07;;;3.67;;
71236;SDS011;58984;51.960;5.582;2022-10-16T16:31:38;11.23;;;3.83;;
71236;SDS011;58984;51.960;5.582;2022-10-16T16:34:04;7.90;;;3.47;;
71236;SDS011;58984;51.960;5.582;2022-10-16T16:36:30;6.28;;;3.70;;
71236;SDS011;58984;51.960;5.582;2022-10-16T16:38:56;10.05;;;3.67;;
71236;SDS011;58984;51.960;5.582;2022-10-16T16:41:23;6.88;;;3.85;;
71236;SDS011;58984;51.960;5.582;2022-10-16T16:43:52;8.98;;;3.92;;
71236;SDS011;58984;51.960;5.582;2022-10-16T16:46:18;7.18;;;4.05;;
71236;SDS011;58984;51.960;5.582;2022-10-16T16:48:44;9.18;;;4.30;;
71236;SDS011;58984;51.960;5.582;2022-10-16T16:51:12;13.38;;;4.07;;
71236;SDS011;58984;51.960;5.582;2022-10-16T16:53:41;8.70;;;4.22;;
71236;SDS011;58984;51.960;5.582;2022-10-16T16:56:08;9.25;;;4.15;;
71236;SDS011;58984;51.960;5.582;2022-10-16T16:58:34;7.22;;;3.67;;
71236;SDS011;58984;51.960;5.582;2022-10-16T17:01:00;8.80;;;3.95;;
71236;SDS011;58984;51.960;5.582;2022-10-16T17:03:30;9.32;;;4.07;;
71236;SDS011;58984;51.960;5.582;2022-10-16T17:08:26;9.60;;;4.57;;
71236;SDS011;58984;51.960;5.582;2022-10-16T17:10:52;6.90;;;3.45;;
71236;SDS011;58984;51.960;5.582;2022-10-16T17:13:20;8.73;;;3.85;;
71236;SDS011;58984;51.960;5.582;2022-10-16T17:15:50;5.88;;;3.25;;